sensor_id;sensor_type;location;lat;lon;timestamp;temperature;humidity
24146;DHT22;12308;50.948;4.706;2023-08-24T00:01:07;20.80;99.90
24146;DHT22;12308;50.948;4.706;2023-08-24T00:03:34;20.80;99.90
24146;DHT22;12308;50.948;4.706;2023-08-24T00:06:00;20.80;99.90
24146;DHT22;12308;50.948;4.706;2023-08-24T00:08:26;20.80;99.90
24146;DHT22;12308;50.948;4.706;2023-08-24T00:10:52;20.70;99.90
24146;DHT22;12308;50.948;4.706;2023-08-24T00:13:18;20.60;99.90
24146;DHT22;12308;50.948;4.706;2023-08-24T00:15:45;20.60;99.90
24146;DHT22;12308;50.948;4.706;2023-08-24T00:18:11;20.60;99.90
24146;DHT22;12308;50.948;4.706;2023-08-24T00:20:36;20.70;99.90
24146;DHT22;12308;50.948;4.706;2023-08-24T00:23:03;20.70;99.90
24146;DHT22;12308;50.948;4.706;2023-08-24T00:25:30;20.70;99.90
24146;DHT22;12308;50.948;4.706;2023-08-24T00:27:56;20.60;99.90
24146;DHT22;12308;50.948;4.706;2023-08-24T00:30:22;20.60;99.90
24146;DHT22;12308;50.948;4.706;2023-08-24T00:32:49;20.60;99.90
24146;DHT22;12308;50.948;4.706;2023-08-24T00:35:15;20.60;99.90
24146;DHT22;12308;50.948;4.706;2023-08-24T00:37:41;20.50;99.90
24146;DHT22;12308;50.948;4.706;2023-08-24T00:40:07;20.50;99.90
24146;DHT22;12308;50.948;4.706;2023-08-24T00:42:40;20.50;99.90
24146;DHT22;12308;50.948;4.706;2023-08-24T00:45:07;20.70;99.90
24146;DHT22;12308;50.948;4.706;2023-08-24T00:47:39;20.60;99.90
24146;DHT22;12308;50.948;4.706;2023-08-24T00:50:06;20.50;99.90
24146;DHT22;12308;50.948;4.706;2023-08-24T00:52:33;20.40;99.90
24146;DHT22;12308;50.948;4.706;2023-08-24T00:55:01;20.50;99.90
24146;DHT22;12308;50.948;4.706;2023-08-24T00:57:28;20.60;99.90
24146;DHT22;12308;50.948;4.706;2023-08-24T00:59:57;20.60;99.90
24146;DHT22;12308;50.948;4.706;2023-08-24T01:02:24;20.60;99.90
24146;DHT22;12308;50.948;4.706;2023-08-24T01:04:50;20.90;99.90
24146;DHT22;12308;50.948;4.706;2023-08-24T01:07:16;20.90;99.90
24146;DHT22;12308;50.948;4.706;2023-08-24T01:09:43;20.70;99.90
24146;DHT22;12308;50.948;4.706;2023-08-24T01:17:30;20.80;99.90
24146;DHT22;12308;50.948;4.706;2023-08-24T01:19:58;20.80;99.90
24146;DHT22;12308;50.948;4.706;2023-08-24T01:25:20;20.90;99.90
24146;DHT22;12308;50.948;4.706;2023-08-24T01:27:50;20.80;99.90
24146;DHT22;12308;50.948;4.706;2023-08-24T01:30:18;20.80;99.90
24146;DHT22;12308;50.948;4.706;2023-08-24T01:32:43;20.70;99.90
24146;DHT22;12308;50.948;4.706;2023-08-24T01:35:09;20.60;99.90
24146;DHT22;12308;50.948;4.706;2023-08-24T01:37:35;20.60;99.90
24146;DHT22;12308;50.948;4.706;2023-08-24T01:40:18;20.60;99.90
24146;DHT22;12308;50.948;4.706;2023-08-24T01:42:58;20.80;99.90
24146;DHT22;12308;50.948;4.706;2023-08-24T01:45:28;20.80;99.90
24146;DHT22;12308;50.948;4.706;2023-08-24T01:47:55;20.80;99.90
24146;DHT22;12308;50.948;4.706;2023-08-24T01:50:22;20.70;99.90
24146;DHT22;12308;50.948;4.706;2023-08-24T01:52:48;20.70;99.90
24146;DHT22;12308;50.948;4.706;2023-08-24T01:55:15;20.60;99.90
24146;DHT22;12308;50.948;4.706;2023-08-24T01:57:42;20.50;99.90
24146;DHT22;12308;50.948;4.706;2023-08-24T02:00:08;20.50;99.90
24146;DHT22;12308;50.948;4.706;2023-08-24T02:02:35;20.60;99.90
24146;DHT22;12308;50.948;4.706;2023-08-24T02:05:01;20.60;99.90
24146;DHT22;12308;50.948;4.706;2023-08-24T02:07:28;20.70;99.90
24146;DHT22;12308;50.948;4.706;2023-08-24T02:09:53;20.60;99.90
24146;DHT22;12308;50.948;4.706;2023-08-24T02:12:19;20.50;99.90
24146;DHT22;12308;50.948;4.706;2023-08-24T02:14:45;20.50;99.90
24146;DHT22;12308;50.948;4.706;2023-08-24T02:17:11;20.50;99.90
24146;DHT22;12308;50.948;4.706;2023-08-24T02:19:36;20.60;99.90
24146;DHT22;12308;50.948;4.706;2023-08-24T02:22:02;20.70;99.90
24146;DHT22;12308;50.948;4.706;2023-08-24T02:24:28;20.60;99.90
24146;DHT22;12308;50.948;4.706;2023-08-24T02:26:53;20.60;99.90
24146;DHT22;12308;50.948;4.706;2023-08-24T02:29:19;20.60;99.90
24146;DHT22;12308;50.948;4.706;2023-08-24T02:31:45;20.50;99.90
24146;DHT22;12308;50.948;4.706;2023-08-24T02:34:10;20.40;99.90
24146;DHT22;12308;50.948;4.706;2023-08-24T02:36:36;20.30;99.90
24146;DHT22;12308;50.948;4.706;2023-08-24T02:39:02;20.00;99.90
24146;DHT22;12308;50.948;4.706;2023-08-24T02:41:29;19.90;99.90
24146;DHT22;12308;50.948;4.706;2023-08-24T02:43:54;19.90;99.90
24146;DHT22;12308;50.948;4.706;2023-08-24T02:46:21;19.90;99.90
24146;DHT22;12308;50.948;4.706;2023-08-24T02:48:46;19.80;99.90
24146;DHT22;12308;50.948;4.706;2023-08-24T02:51:13;19.70;99.90
24146;DHT22;12308;50.948;4.706;2023-08-24T02:53:39;19.60;99.90
24146;DHT22;12308;50.948;4.706;2023-08-24T02:56:04;19.50;99.90
24146;DHT22;12308;50.948;4.706;2023-08-24T02:58:30;19.60;99.90
24146;DHT22;12308;50.948;4.706;2023-08-24T03:00:56;19.50;99.90
24146;DHT22;12308;50.948;4.706;2023-08-24T03:03:23;19.60;99.90
24146;DHT22;12308;50.948;4.706;2023-08-24T03:05:57;19.70;99.90
24146;DHT22;12308;50.948;4.706;2023-08-24T03:08:23;19.80;99.90
24146;DHT22;12308;50.948;4.706;2023-08-24T03:10:49;19.80;99.90
24146;DHT22;12308;50.948;4.706;2023-08-24T03:13:15;19.90;99.90
24146;DHT22;12308;50.948;4.706;2023-08-24T03:15:41;19.80;99.90
24146;DHT22;12308;50.948;4.706;2023-08-24T03:18:06;19.90;99.90
24146;DHT22;12308;50.948;4.706;2023-08-24T03:20:32;19.90;99.90
24146;DHT22;12308;50.948;4.706;2023-08-24T03:22:58;20.00;99.90
24146;DHT22;12308;50.948;4.706;2023-08-24T03:25:24;20.10;99.90
24146;DHT22;12308;50.948;4.706;2023-08-24T03:27:49;20.30;99.90
24146;DHT22;12308;50.948;4.706;2023-08-24T03:30:15;20.30;99.90
24146;DHT22;12308;50.948;4.706;2023-08-24T03:32:41;20.40;99.90
24146;DHT22;12308;50.948;4.706;2023-08-24T03:35:07;20.40;99.90
24146;DHT22;12308;50.948;4.706;2023-08-24T03:37:33;20.40;99.90
24146;DHT22;12308;50.948;4.706;2023-08-24T03:39:59;20.40;99.90
24146;DHT22;12308;50.948;4.706;2023-08-24T03:42:25;20.40;99.90
24146;DHT22;12308;50.948;4.706;2023-08-24T03:44:51;20.30;99.90
24146;DHT22;12308;50.948;4.706;2023-08-24T03:47:16;20.10;99.90
24146;DHT22;12308;50.948;4.706;2023-08-24T03:49:43;20.10;99.90
24146;DHT22;12308;50.948;4.706;2023-08-24T03:52:09;20.10;99.90
24146;DHT22;12308;50.948;4.706;2023-08-24T03:54:35;20.20;99.90
24146;DHT22;12308;50.948;4.706;2023-08-24T03:57:01;20.00;99.90
24146;DHT22;12308;50.948;4.706;2023-08-24T03:59:27;20.00;99.90
24146;DHT22;12308;50.948;4.706;2023-08-24T04:01:53;20.20;99.90
24146;DHT22;12308;50.948;4.706;2023-08-24T04:04:18;20.30;99.90
24146;DHT22;12308;50.948;4.706;2023-08-24T04:06:44;20.10;99.90
24146;DHT22;12308;50.948;4.706;2023-08-24T04:09:10;19.90;99.90
24146;DHT22;12308;50.948;4.706;2023-08-24T04:11:36;19.70;99.90
24146;DHT22;12308;50.948;4.706;2023-08-24T04:14:01;19.60;99.90
24146;DHT22;12308;50.948;4.706;2023-08-24T04:16:27;19.60;99.90
24146;DHT22;12308;50.948;4.706;2023-08-24T04:18:53;19.60;99.90
24146;DHT22;12308;50.948;4.706;2023-08-24T04:21:18;19.60;99.90
24146;DHT22;12308;50.948;4.706;2023-08-24T04:23:44;19.50;99.90
24146;DHT22;12308;50.948;4.706;2023-08-24T04:26:14;19.50;99.90
24146;DHT22;12308;50.948;4.706;2023-08-24T04:28:40;19.50;99.90
24146;DHT22;12308;50.948;4.706;2023-08-24T04:31:05;19.50;99.90
24146;DHT22;12308;50.948;4.706;2023-08-24T04:33:31;19.50;99.90
24146;DHT22;12308;50.948;4.706;2023-08-24T04:35:58;19.60;99.90
24146;DHT22;12308;50.948;4.706;2023-08-24T04:38:24;19.60;99.90
24146;DHT22;12308;50.948;4.706;2023-08-24T04:40:54;19.50;99.90
24146;DHT22;12308;50.948;4.706;2023-08-24T04:43:22;19.50;99.90
24146;DHT22;12308;50.948;4.706;2023-08-24T04:45:54;19.50;99.90
24146;DHT22;12308;50.948;4.706;2023-08-24T04:48:24;19.60;99.90
24146;DHT22;12308;50.948;4.706;2023-08-24T04:50:51;19.60;99.90
24146;DHT22;12308;50.948;4.706;2023-08-24T04:53:19;19.50;99.90
24146;DHT22;12308;50.948;4.706;2023-08-24T04:55:46;19.50;99.90
24146;DHT22;12308;50.948;4.706;2023-08-24T04:58:12;19.40;99.90
24146;DHT22;12308;50.948;4.706;2023-08-24T05:00:39;19.40;99.90
24146;DHT22;12308;50.948;4.706;2023-08-24T05:03:05;19.30;99.90
24146;DHT22;12308;50.948;4.706;2023-08-24T05:05:35;19.40;99.90
24146;DHT22;12308;50.948;4.706;2023-08-24T05:08:03;19.40;99.90
24146;DHT22;12308;50.948;4.706;2023-08-24T05:10:32;19.50;99.90
24146;DHT22;12308;50.948;4.706;2023-08-24T05:12:58;19.60;99.90
24146;DHT22;12308;50.948;4.706;2023-08-24T05:15:24;19.60;99.90
24146;DHT22;12308;50.948;4.706;2023-08-24T05:17:50;19.70;99.90
24146;DHT22;12308;50.948;4.706;2023-08-24T05:20:20;19.60;99.90
24146;DHT22;12308;50.948;4.706;2023-08-24T05:22:46;19.70;99.90
24146;DHT22;12308;50.948;4.706;2023-08-24T05:25:12;19.70;99.90
24146;DHT22;12308;50.948;4.706;2023-08-24T05:27:39;19.70;99.90
24146;DHT22;12308;50.948;4.706;2023-08-24T05:30:06;19.80;99.90
24146;DHT22;12308;50.948;4.706;2023-08-24T05:32:32;19.80;99.90
24146;DHT22;12308;50.948;4.706;2023-08-24T05:34:58;19.70;99.90
24146;DHT22;12308;50.948;4.706;2023-08-24T05:37:24;19.80;99.90
24146;DHT22;12308;50.948;4.706;2023-08-24T05:39:50;19.80;99.90
24146;DHT22;12308;50.948;4.706;2023-08-24T05:42:15;19.90;99.90
24146;DHT22;12308;50.948;4.706;2023-08-24T05:44:41;19.90;99.90
24146;DHT22;12308;50.948;4.706;2023-08-24T05:47:07;20.10;99.90
24146;DHT22;12308;50.948;4.706;2023-08-24T05:49:33;20.20;99.90
24146;DHT22;12308;50.948;4.706;2023-08-24T05:51:59;20.30;99.90
24146;DHT22;12308;50.948;4.706;2023-08-24T05:54:25;20.50;99.90
24146;DHT22;12308;50.948;4.706;2023-08-24T05:56:51;20.90;99.90
24146;DHT22;12308;50.948;4.706;2023-08-24T05:59:16;21.10;99.90
24146;DHT22;12308;50.948;4.706;2023-08-24T06:01:42;21.10;99.90
24146;DHT22;12308;50.948;4.706;2023-08-24T06:04:08;21.00;99.90
24146;DHT22;12308;50.948;4.706;2023-08-24T06:06:35;21.00;99.90
24146;DHT22;12308;50.948;4.706;2023-08-24T06:09:01;21.00;99.90
24146;DHT22;12308;50.948;4.706;2023-08-24T06:11:29;20.90;99.90
24146;DHT22;12308;50.948;4.706;2023-08-24T06:13:55;20.90;99.90
24146;DHT22;12308;50.948;4.706;2023-08-24T06:16:21;21.00;99.90
24146;DHT22;12308;50.948;4.706;2023-08-24T06:18:46;20.90;99.90
24146;DHT22;12308;50.948;4.706;2023-08-24T06:21:13;21.00;99.90
24146;DHT22;12308;50.948;4.706;2023-08-24T06:23:39;21.20;99.90
24146;DHT22;12308;50.948;4.706;2023-08-24T06:26:04;21.20;99.90
24146;DHT22;12308;50.948;4.706;2023-08-24T06:28:30;21.30;99.90
24146;DHT22;12308;50.948;4.706;2023-08-24T06:30:56;21.50;99.90
24146;DHT22;12308;50.948;4.706;2023-08-24T06:33:27;21.50;99.90
24146;DHT22;12308;50.948;4.706;2023-08-24T06:35:56;21.70;99.90
24146;DHT22;12308;50.948;4.706;2023-08-24T06:38:22;21.80;99.90
24146;DHT22;12308;50.948;4.706;2023-08-24T06:40:48;21.90;99.90
24146;DHT22;12308;50.948;4.706;2023-08-24T06:43:13;22.00;99.90
24146;DHT22;12308;50.948;4.706;2023-08-24T06:45:44;22.00;99.90
24146;DHT22;12308;50.948;4.706;2023-08-24T06:48:10;21.90;99.90
24146;DHT22;12308;50.948;4.706;2023-08-24T06:50:36;22.00;99.90
24146;DHT22;12308;50.948;4.706;2023-08-24T06:53:03;22.00;99.90
24146;DHT22;12308;50.948;4.706;2023-08-24T06:55:29;22.20;99.90
24146;DHT22;12308;50.948;4.706;2023-08-24T06:57:55;22.40;99.90
24146;DHT22;12308;50.948;4.706;2023-08-24T07:00:20;22.70;99.90
24146;DHT22;12308;50.948;4.706;2023-08-24T07:02:47;22.80;99.90
24146;DHT22;12308;50.948;4.706;2023-08-24T07:05:14;23.00;99.90
24146;DHT22;12308;50.948;4.706;2023-08-24T07:07:40;23.20;99.90
24146;DHT22;12308;50.948;4.706;2023-08-24T07:10:09;23.20;99.90
24146;DHT22;12308;50.948;4.706;2023-08-24T07:12:34;23.20;99.90
24146;DHT22;12308;50.948;4.706;2023-08-24T07:15:00;23.20;99.90
24146;DHT22;12308;50.948;4.706;2023-08-24T07:17:26;23.40;99.90
24146;DHT22;12308;50.948;4.706;2023-08-24T07:19:52;23.70;99.90
24146;DHT22;12308;50.948;4.706;2023-08-24T07:22:18;23.90;99.90
24146;DHT22;12308;50.948;4.706;2023-08-24T07:24:44;24.00;99.90
24146;DHT22;12308;50.948;4.706;2023-08-24T07:27:10;24.10;99.90
24146;DHT22;12308;50.948;4.706;2023-08-24T07:29:36;24.40;99.90
24146;DHT22;12308;50.948;4.706;2023-08-24T07:32:01;24.70;99.90
24146;DHT22;12308;50.948;4.706;2023-08-24T07:34:28;24.70;99.90
24146;DHT22;12308;50.948;4.706;2023-08-24T07:36:55;24.70;99.90
24146;DHT22;12308;50.948;4.706;2023-08-24T07:39:20;24.80;99.90
24146;DHT22;12308;50.948;4.706;2023-08-24T07:41:46;24.90;99.90
24146;DHT22;12308;50.948;4.706;2023-08-24T07:44:12;25.10;99.90
24146;DHT22;12308;50.948;4.706;2023-08-24T07:46:41;25.20;99.90
24146;DHT22;12308;50.948;4.706;2023-08-24T07:49:06;25.30;99.90
24146;DHT22;12308;50.948;4.706;2023-08-24T07:51:35;25.20;99.90
24146;DHT22;12308;50.948;4.706;2023-08-24T07:54:01;25.30;99.90
24146;DHT22;12308;50.948;4.706;2023-08-24T07:56:27;25.30;99.90
24146;DHT22;12308;50.948;4.706;2023-08-24T07:58:52;25.50;99.90
24146;DHT22;12308;50.948;4.706;2023-08-24T08:01:18;25.60;99.90
24146;DHT22;12308;50.948;4.706;2023-08-24T08:03:44;25.70;99.90
24146;DHT22;12308;50.948;4.706;2023-08-24T08:06:09;25.80;99.90
24146;DHT22;12308;50.948;4.706;2023-08-24T08:08:35;25.60;99.90
24146;DHT22;12308;50.948;4.706;2023-08-24T08:11:02;25.70;99.90
24146;DHT22;12308;50.948;4.706;2023-08-24T08:13:28;25.80;99.90
24146;DHT22;12308;50.948;4.706;2023-08-24T08:16:01;25.80;99.90
24146;DHT22;12308;50.948;4.706;2023-08-24T08:18:28;25.80;99.90
24146;DHT22;12308;50.948;4.706;2023-08-24T08:20:54;26.00;99.90
24146;DHT22;12308;50.948;4.706;2023-08-24T08:23:20;26.10;99.90
24146;DHT22;12308;50.948;4.706;2023-08-24T08:25:46;26.30;99.90
24146;DHT22;12308;50.948;4.706;2023-08-24T08:28:11;26.50;99.90
24146;DHT22;12308;50.948;4.706;2023-08-24T08:30:37;26.50;99.90
24146;DHT22;12308;50.948;4.706;2023-08-24T08:33:03;26.30;99.90
24146;DHT22;12308;50.948;4.706;2023-08-24T08:35:28;26.40;99.90
24146;DHT22;12308;50.948;4.706;2023-08-24T08:37:54;26.50;99.90
24146;DHT22;12308;50.948;4.706;2023-08-24T08:40:20;26.40;99.90
24146;DHT22;12308;50.948;4.706;2023-08-24T08:42:46;26.30;99.90
24146;DHT22;12308;50.948;4.706;2023-08-24T08:45:12;26.40;99.90
24146;DHT22;12308;50.948;4.706;2023-08-24T08:47:38;26.40;99.90
24146;DHT22;12308;50.948;4.706;2023-08-24T08:50:04;26.50;99.90
24146;DHT22;12308;50.948;4.706;2023-08-24T08:52:33;26.70;99.90
24146;DHT22;12308;50.948;4.706;2023-08-24T08:55:00;26.70;99.90
24146;DHT22;12308;50.948;4.706;2023-08-24T08:57:26;26.90;99.90
24146;DHT22;12308;50.948;4.706;2023-08-24T08:59:52;26.70;99.90
24146;DHT22;12308;50.948;4.706;2023-08-24T09:02:20;27.00;99.90
24146;DHT22;12308;50.948;4.706;2023-08-24T09:04:48;27.20;99.90
24146;DHT22;12308;50.948;4.706;2023-08-24T09:07:16;27.40;99.90
24146;DHT22;12308;50.948;4.706;2023-08-24T09:09:42;27.50;99.90
24146;DHT22;12308;50.948;4.706;2023-08-24T09:12:08;27.50;99.90
24146;DHT22;12308;50.948;4.706;2023-08-24T09:14:34;27.70;99.90
24146;DHT22;12308;50.948;4.706;2023-08-24T09:17:00;28.00;99.90
24146;DHT22;12308;50.948;4.706;2023-08-24T09:19:30;28.10;99.90
24146;DHT22;12308;50.948;4.706;2023-08-24T09:21:57;28.20;99.90
24146;DHT22;12308;50.948;4.706;2023-08-24T09:24:33;28.20;99.90
24146;DHT22;12308;50.948;4.706;2023-08-24T09:27:20;28.20;99.90
24146;DHT22;12308;50.948;4.706;2023-08-24T09:29:50;27.80;99.90
24146;DHT22;12308;50.948;4.706;2023-08-24T09:32:22;27.20;99.90
24146;DHT22;12308;50.948;4.706;2023-08-24T09:34:48;27.10;99.90
24146;DHT22;12308;50.948;4.706;2023-08-24T09:37:14;27.00;99.90
24146;DHT22;12308;50.948;4.706;2023-08-24T09:39:41;26.80;99.90
24146;DHT22;12308;50.948;4.706;2023-08-24T09:42:07;26.70;99.90
24146;DHT22;12308;50.948;4.706;2023-08-24T09:44:32;26.60;99.90
24146;DHT22;12308;50.948;4.706;2023-08-24T09:46:58;26.50;99.90
24146;DHT22;12308;50.948;4.706;2023-08-24T09:49:24;26.30;99.90
24146;DHT22;12308;50.948;4.706;2023-08-24T09:51:56;25.70;99.90
24146;DHT22;12308;50.948;4.706;2023-08-24T09:54:27;25.20;99.90
24146;DHT22;12308;50.948;4.706;2023-08-24T09:56:55;25.00;99.90
24146;DHT22;12308;50.948;4.706;2023-08-24T09:59:22;24.60;99.90
24146;DHT22;12308;50.948;4.706;2023-08-24T10:01:51;24.40;99.90
24146;DHT22;12308;50.948;4.706;2023-08-24T10:04:36;24.00;99.90
24146;DHT22;12308;50.948;4.706;2023-08-24T10:07:08;23.70;99.90
24146;DHT22;12308;50.948;4.706;2023-08-24T10:10:02;23.40;99.90
24146;DHT22;12308;50.948;4.706;2023-08-24T10:12:30;23.20;99.90
24146;DHT22;12308;50.948;4.706;2023-08-24T10:15:00;23.20;99.90
24146;DHT22;12308;50.948;4.706;2023-08-24T10:17:29;23.10;99.90
24146;DHT22;12308;50.948;4.706;2023-08-24T10:19:58;23.30;99.90
24146;DHT22;12308;50.948;4.706;2023-08-24T10:22:28;23.20;99.90
24146;DHT22;12308;50.948;4.706;2023-08-24T10:24:54;23.10;99.90
24146;DHT22;12308;50.948;4.706;2023-08-24T10:27:22;23.00;99.90
24146;DHT22;12308;50.948;4.706;2023-08-24T10:29:49;22.80;99.90
24146;DHT22;12308;50.948;4.706;2023-08-24T10:32:14;22.90;99.90
24146;DHT22;12308;50.948;4.706;2023-08-24T10:34:41;22.80;99.90
24146;DHT22;12308;50.948;4.706;2023-08-24T10:37:10;22.80;99.90
24146;DHT22;12308;50.948;4.706;2023-08-24T10:39:46;22.80;99.90
24146;DHT22;12308;50.948;4.706;2023-08-24T10:42:15;22.80;99.90
24146;DHT22;12308;50.948;4.706;2023-08-24T10:44:45;22.70;99.90
24146;DHT22;12308;50.948;4.706;2023-08-24T10:47:22;22.60;99.90
24146;DHT22;12308;50.948;4.706;2023-08-24T10:52:21;22.50;99.90
24146;DHT22;12308;50.948;4.706;2023-08-24T10:54:52;22.50;99.90
24146;DHT22;12308;50.948;4.706;2023-08-24T10:57:35;22.60;99.90
24146;DHT22;12308;50.948;4.706;2023-08-24T11:02:51;22.50;99.90
24146;DHT22;12308;50.948;4.706;2023-08-24T11:05:27;22.80;99.90
24146;DHT22;12308;50.948;4.706;2023-08-24T11:07:58;23.00;99.90
24146;DHT22;12308;50.948;4.706;2023-08-24T11:15:34;24.00;99.90
24146;DHT22;12308;50.948;4.706;2023-08-24T11:18:25;24.20;99.90
24146;DHT22;12308;50.948;4.706;2023-08-24T11:21:04;24.60;99.90
24146;DHT22;12308;50.948;4.706;2023-08-24T11:23:31;24.70;99.90
24146;DHT22;12308;50.948;4.706;2023-08-24T11:26:00;25.10;99.90
24146;DHT22;12308;50.948;4.706;2023-08-24T11:28:28;25.30;99.90
24146;DHT22;12308;50.948;4.706;2023-08-24T11:30:55;25.60;99.90
24146;DHT22;12308;50.948;4.706;2023-08-24T11:33:34;25.90;99.90
24146;DHT22;12308;50.948;4.706;2023-08-24T11:36:03;26.20;99.90
24146;DHT22;12308;50.948;4.706;2023-08-24T11:38:39;26.40;99.90
24146;DHT22;12308;50.948;4.706;2023-08-24T11:41:16;26.80;99.90
24146;DHT22;12308;50.948;4.706;2023-08-24T11:43:47;26.90;99.90
24146;DHT22;12308;50.948;4.706;2023-08-24T11:46:16;27.00;99.90
24146;DHT22;12308;50.948;4.706;2023-08-24T11:48:42;27.00;99.90
24146;DHT22;12308;50.948;4.706;2023-08-24T11:51:12;26.80;99.90
24146;DHT22;12308;50.948;4.706;2023-08-24T11:53:42;26.90;99.90
24146;DHT22;12308;50.948;4.706;2023-08-24T11:56:12;27.10;99.90
24146;DHT22;12308;50.948;4.706;2023-08-24T11:58:42;27.00;99.90
24146;DHT22;12308;50.948;4.706;2023-08-24T12:01:11;27.20;99.90
24146;DHT22;12308;50.948;4.706;2023-08-24T12:03:38;27.20;99.90
24146;DHT22;12308;50.948;4.706;2023-08-24T12:06:12;27.30;99.90
24146;DHT22;12308;50.948;4.706;2023-08-24T12:08:44;27.40;99.90
24146;DHT22;12308;50.948;4.706;2023-08-24T12:11:20;27.30;99.90
24146;DHT22;12308;50.948;4.706;2023-08-24T12:13:52;27.40;99.90
24146;DHT22;12308;50.948;4.706;2023-08-24T12:16:19;27.40;99.90
24146;DHT22;12308;50.948;4.706;2023-08-24T12:18:54;27.40;99.90
24146;DHT22;12308;50.948;4.706;2023-08-24T12:21:23;27.20;99.90
24146;DHT22;12308;50.948;4.706;2023-08-24T12:24:02;27.00;99.90
24146;DHT22;12308;50.948;4.706;2023-08-24T12:26:35;26.60;99.90
24146;DHT22;12308;50.948;4.706;2023-08-24T12:29:06;26.30;99.90
24146;DHT22;12308;50.948;4.706;2023-08-24T12:31:32;25.90;99.90
24146;DHT22;12308;50.948;4.706;2023-08-24T12:34:03;25.60;99.90
24146;DHT22;12308;50.948;4.706;2023-08-24T12:36:30;25.10;99.90
24146;DHT22;12308;50.948;4.706;2023-08-24T12:38:58;24.90;99.90
24146;DHT22;12308;50.948;4.706;2023-08-24T12:41:23;24.70;99.90
24146;DHT22;12308;50.948;4.706;2023-08-24T12:43:53;24.60;99.90
24146;DHT22;12308;50.948;4.706;2023-08-24T12:46:19;24.40;99.90
24146;DHT22;12308;50.948;4.706;2023-08-24T12:48:44;24.30;99.90
24146;DHT22;12308;50.948;4.706;2023-08-24T12:51:10;24.20;99.90
24146;DHT22;12308;50.948;4.706;2023-08-24T12:53:36;24.10;99.90
24146;DHT22;12308;50.948;4.706;2023-08-24T12:56:02;23.90;99.90
24146;DHT22;12308;50.948;4.706;2023-08-24T12:58:28;23.70;99.90
24146;DHT22;12308;50.948;4.706;2023-08-24T13:00:53;23.50;99.90
24146;DHT22;12308;50.948;4.706;2023-08-24T13:03:19;23.40;99.90
24146;DHT22;12308;50.948;4.706;2023-08-24T13:05:44;23.40;99.90
24146;DHT22;12308;50.948;4.706;2023-08-24T13:08:10;23.20;99.90
24146;DHT22;12308;50.948;4.706;2023-08-24T13:10:36;23.20;99.90
24146;DHT22;12308;50.948;4.706;2023-08-24T13:13:02;23.10;99.90
24146;DHT22;12308;50.948;4.706;2023-08-24T13:15:29;23.00;99.90
24146;DHT22;12308;50.948;4.706;2023-08-24T13:17:54;23.10;99.90
24146;DHT22;12308;50.948;4.706;2023-08-24T13:20:20;23.00;99.90
24146;DHT22;12308;50.948;4.706;2023-08-24T13:22:46;22.90;99.90
24146;DHT22;12308;50.948;4.706;2023-08-24T13:25:11;22.90;99.90
24146;DHT22;12308;50.948;4.706;2023-08-24T13:27:37;22.80;99.90
24146;DHT22;12308;50.948;4.706;2023-08-24T13:30:03;22.80;99.90
24146;DHT22;12308;50.948;4.706;2023-08-24T13:32:29;22.90;99.90
24146;DHT22;12308;50.948;4.706;2023-08-24T13:34:55;22.90;99.90
24146;DHT22;12308;50.948;4.706;2023-08-24T13:37:21;22.70;99.90
24146;DHT22;12308;50.948;4.706;2023-08-24T13:39:48;22.70;99.90
24146;DHT22;12308;50.948;4.706;2023-08-24T13:42:13;22.50;99.90
24146;DHT22;12308;50.948;4.706;2023-08-24T13:44:39;22.50;99.90
24146;DHT22;12308;50.948;4.706;2023-08-24T13:47:05;22.50;99.90
24146;DHT22;12308;50.948;4.706;2023-08-24T13:49:31;22.50;99.90
24146;DHT22;12308;50.948;4.706;2023-08-24T13:51:57;22.50;99.90
24146;DHT22;12308;50.948;4.706;2023-08-24T13:54:23;22.50;99.90
24146;DHT22;12308;50.948;4.706;2023-08-24T13:56:50;22.60;99.90
24146;DHT22;12308;50.948;4.706;2023-08-24T13:59:16;22.80;99.90
24146;DHT22;12308;50.948;4.706;2023-08-24T14:01:41;22.90;99.90
24146;DHT22;12308;50.948;4.706;2023-08-24T14:04:07;22.90;99.90
24146;DHT22;12308;50.948;4.706;2023-08-24T14:06:34;23.10;99.90
24146;DHT22;12308;50.948;4.706;2023-08-24T14:09:06;23.10;99.90
24146;DHT22;12308;50.948;4.706;2023-08-24T14:11:32;23.30;99.90
24146;DHT22;12308;50.948;4.706;2023-08-24T14:13:58;23.30;99.90
24146;DHT22;12308;50.948;4.706;2023-08-24T14:16:24;23.50;99.90
24146;DHT22;12308;50.948;4.706;2023-08-24T14:18:52;23.60;99.90
24146;DHT22;12308;50.948;4.706;2023-08-24T14:21:18;23.80;99.90
24146;DHT22;12308;50.948;4.706;2023-08-24T14:23:46;23.80;99.90
24146;DHT22;12308;50.948;4.706;2023-08-24T14:26:11;23.80;99.90
24146;DHT22;12308;50.948;4.706;2023-08-24T14:28:57;23.90;99.90
24146;DHT22;12308;50.948;4.706;2023-08-24T14:31:25;23.90;99.90
24146;DHT22;12308;50.948;4.706;2023-08-24T14:33:51;23.90;99.90
24146;DHT22;12308;50.948;4.706;2023-08-24T14:36:18;24.10;99.90
24146;DHT22;12308;50.948;4.706;2023-08-24T14:38:44;24.40;99.90
24146;DHT22;12308;50.948;4.706;2023-08-24T14:41:11;24.40;99.90
24146;DHT22;12308;50.948;4.706;2023-08-24T14:43:37;24.50;99.90
24146;DHT22;12308;50.948;4.706;2023-08-24T14:46:03;24.70;99.90
24146;DHT22;12308;50.948;4.706;2023-08-24T14:48:29;24.60;99.90
24146;DHT22;12308;50.948;4.706;2023-08-24T14:50:55;24.50;99.90
24146;DHT22;12308;50.948;4.706;2023-08-24T14:53:23;24.50;99.90
24146;DHT22;12308;50.948;4.706;2023-08-24T14:55:48;24.80;99.90
24146;DHT22;12308;50.948;4.706;2023-08-24T14:58:14;25.00;99.90
24146;DHT22;12308;50.948;4.706;2023-08-24T15:00:40;25.30;99.90
24146;DHT22;12308;50.948;4.706;2023-08-24T15:03:06;25.50;99.90
24146;DHT22;12308;50.948;4.706;2023-08-24T15:05:38;25.80;99.90
24146;DHT22;12308;50.948;4.706;2023-08-24T15:08:04;26.00;99.90
24146;DHT22;12308;50.948;4.706;2023-08-24T15:10:30;25.90;99.90
24146;DHT22;12308;50.948;4.706;2023-08-24T15:12:56;25.80;99.90
24146;DHT22;12308;50.948;4.706;2023-08-24T15:15:22;25.80;99.90
24146;DHT22;12308;50.948;4.706;2023-08-24T15:17:48;25.80;99.90
24146;DHT22;12308;50.948;4.706;2023-08-24T15:20:13;25.50;99.90
24146;DHT22;12308;50.948;4.706;2023-08-24T15:22:39;25.50;99.90
24146;DHT22;12308;50.948;4.706;2023-08-24T15:25:06;25.60;99.90
24146;DHT22;12308;50.948;4.706;2023-08-24T15:27:33;25.70;99.90
24146;DHT22;12308;50.948;4.706;2023-08-24T15:29:58;25.50;99.90
24146;DHT22;12308;50.948;4.706;2023-08-24T15:32:26;25.70;99.90
24146;DHT22;12308;50.948;4.706;2023-08-24T15:34:52;25.70;99.90
24146;DHT22;12308;50.948;4.706;2023-08-24T15:37:19;25.80;99.90
24146;DHT22;12308;50.948;4.706;2023-08-24T15:39:45;25.80;99.90
24146;DHT22;12308;50.948;4.706;2023-08-24T15:42:10;25.80;99.90
24146;DHT22;12308;50.948;4.706;2023-08-24T15:44:36;25.90;99.90
24146;DHT22;12308;50.948;4.706;2023-08-24T15:47:02;25.90;99.90
24146;DHT22;12308;50.948;4.706;2023-08-24T15:49:28;25.90;99.90